createdAt,value
2018-07-17T00:00:33.277Z,0.00
2018-07-17T00:01:33.452Z,0.00
2018-07-17T00:02:33.619Z,0.00
2018-07-17T00:03:33.844Z,0.00
2018-07-17T00:04:34.034Z,0.00
2018-07-17T00:05:34.200Z,0.00
2018-07-17T00:06:34.434Z,0.00
2018-07-17T00:07:34.746Z,0.00
2018-07-17T00:08:34.856Z,0.00
2018-07-17T00:09:34.839Z,0.00
2018-07-17T00:10:34.985Z,0.00
2018-07-17T00:11:35.150Z,0.00
2018-07-17T00:12:35.510Z,0.00
2018-07-17T00:13:36.437Z,0.00
2018-07-17T00:14:36.024Z,0.00
2018-07-17T00:15:35.843Z,0.00
2018-07-17T00:16:36.018Z,0.00
2018-07-17T00:17:36.182Z,0.00
2018-07-17T00:18:36.359Z,0.00
2018-07-17T00:19:36.519Z,0.00
2018-07-17T00:20:36.689Z,0.00
2018-07-17T00:21:37.144Z,0.00
2018-07-17T00:22:36.987Z,0.00
2018-07-17T00:23:37.159Z,0.00
2018-07-17T00:24:37.332Z,0.00
2018-07-17T00:25:37.500Z,0.00
2018-07-17T00:26:37.668Z,0.00
2018-07-17T00:27:37.834Z,0.00
2018-07-17T00:28:38.047Z,0.00
2018-07-17T00:29:38.176Z,0.00
2018-07-17T00:30:38.350Z,0.00
2018-07-17T00:31:38.521Z,0.00
2018-07-17T00:32:38.724Z,0.00
2018-07-17T00:33:38.869Z,0.00
2018-07-17T00:34:39.038Z,0.00
2018-07-17T00:35:39.206Z,0.00
2018-07-17T00:36:39.381Z,0.00
2018-07-17T00:37:39.573Z,0.00
2018-07-17T00:38:39.749Z,0.00
2018-07-17T00:39:39.918Z,0.00
2018-07-17T00:40:40.098Z,0.00
2018-07-17T00:41:40.253Z,0.00
2018-07-17T00:42:40.423Z,0.00
2018-07-17T00:43:40.596Z,0.00
2018-07-17T00:44:40.780Z,0.00
2018-07-17T00:45:40.935Z,0.00
2018-07-17T00:46:41.114Z,0.00
2018-07-17T00:47:41.277Z,0.00
2018-07-17T00:48:41.463Z,0.00
2018-07-17T00:49:41.628Z,0.00
2018-07-17T00:50:41.797Z,0.00
2018-07-17T00:51:41.967Z,0.00
2018-07-17T00:52:42.141Z,0.00
2018-07-17T00:53:42.309Z,0.00
2018-07-17T00:54:42.482Z,0.00
2018-07-17T00:55:42.690Z,0.00
2018-07-17T00:56:42.831Z,0.00
2018-07-17T00:57:42.993Z,0.00
2018-07-17T00:58:43.157Z,0.00
2018-07-17T00:59:43.333Z,0.00
2018-07-17T01:00:43.546Z,0.00
2018-07-17T01:01:43.712Z,0.00
2018-07-17T01:02:43.888Z,0.00
2018-07-17T01:03:44.054Z,0.00
2018-07-17T01:04:44.219Z,0.00
2018-07-17T01:05:44.383Z,0.00
2018-07-17T01:06:44.558Z,0.00
2018-07-17T01:07:44.726Z,0.00
2018-07-17T01:08:44.905Z,0.00
2018-07-17T01:09:45.072Z,0.00
2018-07-17T01:10:45.236Z,0.00
2018-07-17T01:11:45.396Z,0.00
2018-07-17T01:12:45.569Z,0.00
2018-07-17T01:13:45.743Z,0.00
2018-07-17T01:14:45.912Z,0.00
2018-07-17T01:15:46.079Z,0.00
2018-07-17T01:16:46.246Z,0.00
2018-07-17T01:17:46.413Z,0.00
2018-07-17T01:18:46.591Z,0.00
2018-07-17T01:19:46.758Z,0.00
2018-07-17T01:20:46.928Z,0.00
2018-07-17T01:21:47.097Z,0.00
2018-07-17T01:22:47.266Z,0.00
2018-07-17T01:23:47.441Z,0.00
2018-07-17T01:24:47.609Z,0.00
2018-07-17T01:25:47.778Z,0.00
2018-07-17T01:26:47.954Z,0.00
2018-07-17T01:27:48.131Z,0.00
2018-07-17T01:28:48.299Z,0.00
2018-07-17T01:29:48.467Z,0.00
2018-07-17T01:30:48.640Z,0.00
2018-07-17T01:31:48.809Z,0.00
2018-07-17T01:32:48.992Z,0.00
2018-07-17T01:33:49.155Z,0.00
2018-07-17T01:34:49.323Z,0.00
2018-07-17T01:35:49.494Z,0.00
2018-07-17T01:36:49.687Z,0.00
2018-07-17T01:37:49.818Z,0.00
2018-07-17T01:38:49.987Z,0.00
2018-07-17T01:39:50.158Z,0.00
2018-07-17T01:40:50.327Z,0.00
2018-07-17T01:41:50.507Z,0.00
2018-07-17T01:42:50.690Z,0.00
2018-07-17T01:43:50.845Z,0.00
2018-07-17T01:44:51.016Z,0.00
2018-07-17T01:45:51.188Z,0.00
2018-07-17T01:46:51.359Z,0.00
2018-07-17T01:47:51.542Z,0.00
2018-07-17T01:48:51.707Z,0.00
2018-07-17T01:49:51.880Z,0.00
2018-07-17T01:50:52.048Z,0.00
2018-07-17T01:51:52.217Z,0.00
2018-07-17T01:52:52.383Z,0.00
2018-07-17T01:53:52.556Z,0.00
2018-07-17T01:54:52.725Z,0.00
2018-07-17T01:55:52.888Z,0.00
2018-07-17T01:56:53.057Z,0.00
2018-07-17T01:57:53.231Z,0.00
2018-07-17T01:58:53.409Z,0.00
2018-07-17T01:59:53.580Z,0.00
2018-07-17T02:00:53.747Z,0.00
2018-07-17T02:01:53.915Z,0.00
2018-07-17T02:02:54.083Z,0.00
2018-07-17T02:03:54.254Z,0.00
2018-07-17T02:04:54.463Z,0.00
2018-07-17T02:05:54.597Z,0.00
2018-07-17T02:06:54.763Z,0.00
2018-07-17T02:07:54.927Z,0.00
2018-07-17T02:08:55.100Z,0.00
2018-07-17T02:09:55.276Z,0.00
2018-07-17T02:10:55.448Z,0.00
2018-07-17T02:11:55.615Z,0.00
2018-07-17T02:12:55.790Z,0.00
2018-07-17T02:13:55.958Z,0.00
2018-07-17T02:14:56.121Z,0.00
2018-07-17T02:15:56.311Z,0.00
2018-07-17T02:16:56.483Z,0.00
2018-07-17T02:17:56.654Z,0.00
2018-07-17T02:18:56.819Z,0.00
2018-07-17T02:19:56.997Z,0.00
2018-07-17T02:20:57.163Z,0.00
2018-07-17T02:21:57.339Z,0.00
2018-07-17T02:22:57.519Z,0.00
2018-07-17T02:23:57.693Z,0.00
2018-07-17T02:24:57.857Z,0.00
2018-07-17T02:25:58.028Z,0.00
2018-07-17T02:26:58.197Z,0.00
2018-07-17T02:27:58.368Z,0.00
2018-07-17T02:28:58.557Z,0.00
2018-07-17T02:29:58.735Z,0.00
2018-07-17T02:30:58.886Z,0.00
2018-07-17T02:31:59.051Z,0.00
2018-07-17T02:32:59.578Z,0.00
2018-07-17T02:33:59.539Z,0.00
2018-07-17T02:34:59.559Z,0.00
2018-07-17T02:35:59.726Z,0.00
2018-07-17T02:36:59.899Z,0.00
2018-07-17T02:38:00.069Z,0.00
2018-07-17T02:39:00.257Z,0.00
2018-07-17T02:40:00.404Z,0.00
2018-07-17T02:41:00.629Z,0.00
2018-07-17T02:42:00.812Z,0.00
2018-07-17T02:43:00.978Z,0.00
2018-07-17T02:44:01.150Z,0.00
2018-07-17T02:45:01.402Z,0.00
2018-07-17T02:46:01.487Z,0.00
2018-07-17T02:47:01.655Z,0.00
2018-07-17T02:48:01.822Z,0.00
2018-07-17T02:49:01.987Z,0.00
2018-07-17T02:50:02.160Z,0.00
2018-07-17T02:51:02.329Z,0.00
2018-07-17T02:52:02.565Z,0.00
2018-07-17T02:53:02.619Z,4.00
2018-07-17T02:54:02.786Z,4.00
2018-07-17T02:55:02.967Z,4.00
2018-07-17T02:56:03.115Z,0.00
2018-07-17T02:57:03.286Z,4.00
2018-07-17T02:58:03.453Z,4.00
2018-07-17T02:59:03.615Z,8.00
2018-07-17T03:00:03.789Z,4.00
2018-07-17T03:01:03.957Z,8.00
2018-07-17T03:02:04.194Z,8.00
2018-07-17T03:03:04.305Z,8.00
2018-07-17T03:04:04.475Z,8.00
2018-07-17T03:05:04.646Z,8.00
2018-07-17T03:06:04.814Z,16.00
2018-07-17T03:07:05.008Z,16.00
2018-07-17T03:08:05.150Z,16.00
2018-07-17T03:09:05.323Z,20.00
2018-07-17T03:10:05.493Z,24.00
2018-07-17T03:11:05.657Z,24.00
2018-07-17T03:12:06.252Z,28.00
2018-07-17T03:13:06.445Z,32.00
2018-07-17T03:14:06.558Z,36.00
2018-07-17T03:15:06.755Z,40.00
2018-07-17T03:16:06.910Z,48.00
2018-07-17T03:17:07.089Z,48.00
2018-07-17T03:18:07.319Z,56.00
2018-07-17T03:19:07.372Z,60.00
2018-07-17T03:20:07.697Z,68.00
2018-07-17T03:21:07.775Z,76.00
2018-07-17T03:22:08.032Z,84.00
2018-07-17T03:23:08.165Z,92.00
2018-07-17T03:24:08.391Z,104.00
2018-07-17T03:25:08.422Z,112.00
2018-07-17T03:26:08.310Z,124.00
2018-07-17T03:27:08.480Z,136.00
2018-07-17T03:28:08.654Z,148.00
2018-07-17T03:29:09.715Z,160.00
2018-07-17T03:30:08.995Z,176.00
2018-07-17T03:31:09.160Z,192.00
2018-07-17T03:32:09.335Z,204.00
2018-07-17T03:33:09.499Z,224.00
2018-07-17T03:34:09.678Z,236.00
2018-07-17T03:35:09.838Z,252.00
2018-07-17T03:36:10.017Z,272.00
2018-07-17T03:37:10.175Z,288.00
2018-07-17T03:38:10.343Z,308.00
2018-07-17T03:39:10.517Z,324.00
2018-07-17T03:40:10.685Z,344.00
2018-07-17T03:41:10.860Z,360.00
2018-07-17T03:42:11.024Z,380.00
2018-07-17T03:43:11.196Z,400.00
2018-07-17T03:44:11.363Z,416.00
2018-07-17T03:45:11.535Z,436.00
2018-07-17T03:46:11.696Z,460.00
2018-07-17T03:47:11.868Z,480.00
2018-07-17T03:48:12.037Z,500.00
2018-07-17T03:49:12.203Z,524.00
2018-07-17T03:50:12.376Z,548.00
2018-07-17T03:51:12.539Z,572.00
2018-07-17T03:52:12.705Z,600.00
2018-07-17T03:53:12.886Z,624.00
2018-07-17T03:54:13.057Z,652.00
2018-07-17T03:55:13.226Z,672.00
2018-07-17T03:56:13.468Z,696.00
2018-07-17T03:57:13.527Z,716.00
2018-07-17T03:58:13.764Z,744.00
2018-07-17T03:59:13.804Z,768.00
2018-07-17T04:00:13.979Z,796.00
2018-07-17T04:01:14.149Z,824.00
2018-07-17T04:02:14.310Z,856.00
2018-07-17T04:03:14.484Z,884.00
2018-07-17T04:04:14.692Z,912.00
2018-07-17T04:05:14.814Z,940.00
2018-07-17T04:06:14.984Z,968.00
2018-07-17T04:07:15.156Z,996.00
2018-07-17T04:08:15.325Z,1028.00
2018-07-17T04:09:15.490Z,1056.00
2018-07-17T04:10:15.665Z,1084.00
2018-07-17T04:11:15.837Z,1116.00
2018-07-17T04:12:16.011Z,1148.00
2018-07-17T04:13:16.183Z,1172.00
2018-07-17T04:14:16.347Z,1192.00
2018-07-17T04:15:16.515Z,1224.00
2018-07-17T04:16:16.687Z,1252.00
2018-07-17T04:17:16.860Z,1284.00
2018-07-17T04:18:17.020Z,1312.00
2018-07-17T04:19:17.195Z,1332.00
2018-07-17T04:20:17.355Z,1344.00
2018-07-17T04:21:17.529Z,1364.00
2018-07-17T04:22:17.690Z,1376.00
2018-07-17T04:23:17.860Z,1392.00
2018-07-17T04:24:18.028Z,1412.00
2018-07-17T04:25:18.989Z,1432.00
2018-07-17T04:26:18.378Z,1452.00
2018-07-17T04:27:18.541Z,1468.00
2018-07-17T04:28:18.709Z,1484.00
2018-07-17T04:29:18.870Z,1496.00
2018-07-17T04:30:19.049Z,1512.00
2018-07-17T04:31:19.222Z,1544.00
2018-07-17T04:32:19.384Z,1604.00
2018-07-17T04:33:19.554Z,1656.00
2018-07-17T04:34:19.721Z,1708.00
2018-07-17T04:35:19.885Z,1744.00
2018-07-17T04:36:20.059Z,1784.00
2018-07-17T04:37:20.226Z,1820.00
2018-07-17T04:38:20.398Z,1844.00
2018-07-17T04:39:20.564Z,1880.00
2018-07-17T04:40:20.744Z,1900.00
2018-07-17T04:41:20.907Z,1936.00
2018-07-17T04:42:21.079Z,1956.00
2018-07-17T04:43:21.251Z,1988.00
2018-07-17T04:44:21.418Z,2036.00
2018-07-17T04:45:21.593Z,2092.00
2018-07-17T04:46:21.757Z,2144.00
2018-07-17T04:47:21.932Z,2188.00
2018-07-17T04:48:22.099Z,2228.00
2018-07-17T04:49:22.324Z,2272.00
2018-07-17T04:50:22.500Z,2312.00
2018-07-17T04:51:22.669Z,2352.00
2018-07-17T04:52:22.838Z,2396.00
2018-07-17T04:53:23.009Z,2432.00
2018-07-17T04:54:23.181Z,2464.00
2018-07-17T04:55:23.348Z,2488.00
2018-07-17T04:56:23.512Z,2500.00
2018-07-17T04:57:23.689Z,2356.00
2018-07-17T04:58:23.859Z,2456.00
2018-07-17T04:59:24.036Z,2532.00
2018-07-17T05:00:24.208Z,2572.00
2018-07-17T05:01:24.383Z,2564.00
2018-07-17T05:02:24.553Z,2552.00
2018-07-17T05:03:24.718Z,2572.00
2018-07-17T05:04:24.888Z,2612.00
2018-07-17T05:05:25.059Z,2632.00
2018-07-17T05:06:25.231Z,2696.00
2018-07-17T05:07:25.399Z,2748.00
2018-07-17T05:08:25.575Z,2788.00
2018-07-17T05:09:26.499Z,2828.00
2018-07-17T05:10:25.929Z,2960.00
2018-07-17T05:11:26.097Z,3020.00
2018-07-17T05:12:26.278Z,3064.00
2018-07-17T05:13:26.448Z,3092.00
2018-07-17T05:14:26.620Z,3120.00
2018-07-17T05:15:26.789Z,3140.00
2018-07-17T05:16:27.031Z,3156.00
2018-07-17T05:17:27.120Z,3168.00
2018-07-17T05:18:27.286Z,3180.00
2018-07-17T05:19:27.460Z,3200.00
2018-07-17T05:20:27.625Z,3224.00
2018-07-17T05:21:27.797Z,3252.00
2018-07-17T05:22:27.981Z,3284.00
2018-07-17T05:23:28.132Z,3312.00
2018-07-17T05:24:28.301Z,3340.00
2018-07-17T05:25:28.469Z,3368.00
2018-07-17T05:26:28.642Z,3396.00
2018-07-17T05:27:28.815Z,3388.00
2018-07-17T05:28:28.980Z,3400.00
2018-07-17T05:29:29.162Z,3416.00
2018-07-17T05:30:29.335Z,3476.00
2018-07-17T05:31:29.501Z,3520.00
2018-07-17T05:32:29.676Z,3540.00
2018-07-17T05:33:29.847Z,3584.00
2018-07-17T05:34:30.016Z,3620.00
2018-07-17T05:35:30.247Z,3700.00
2018-07-17T05:36:30.350Z,3792.00
2018-07-17T05:37:30.512Z,3884.00
2018-07-17T05:38:30.683Z,3960.00
2018-07-17T05:39:30.852Z,4020.00
2018-07-17T05:40:31.024Z,4080.00
2018-07-17T05:41:31.193Z,4124.00
2018-07-17T05:42:31.358Z,4172.00
2018-07-17T05:43:31.527Z,4208.00
2018-07-17T05:44:31.714Z,4248.00
2018-07-17T05:45:31.870Z,4276.00
2018-07-17T05:46:32.103Z,4304.00
2018-07-17T05:47:32.204Z,4328.00
2018-07-17T05:48:32.379Z,4360.00
2018-07-17T05:49:32.545Z,4380.00
2018-07-17T05:50:32.712Z,4396.00
2018-07-17T05:51:32.889Z,4416.00
2018-07-17T05:52:33.056Z,4436.00
2018-07-17T05:53:33.227Z,4456.00
2018-07-17T05:54:33.393Z,4480.00
2018-07-17T05:55:33.562Z,4500.00
2018-07-17T05:56:33.730Z,4528.00
2018-07-17T05:57:33.908Z,4556.00
2018-07-17T05:58:34.076Z,4584.00
2018-07-17T05:59:34.247Z,4608.00
2018-07-17T06:00:34.419Z,4628.00
2018-07-17T06:01:34.585Z,4644.00
2018-07-17T06:02:34.761Z,4668.00
2018-07-17T06:03:34.925Z,4696.00
2018-07-17T06:04:35.098Z,4720.00
2018-07-17T06:05:35.267Z,4752.00
2018-07-17T06:06:35.443Z,4784.00
2018-07-17T06:07:35.602Z,4816.00
2018-07-17T06:08:35.773Z,4852.00
2018-07-17T06:09:35.942Z,4884.00
2018-07-17T06:10:36.116Z,4912.00
2018-07-17T06:11:36.287Z,4936.00
2018-07-17T06:12:36.459Z,4952.00
2018-07-17T06:13:36.629Z,4980.00
2018-07-17T06:14:36.796Z,4996.00
2018-07-17T06:15:36.969Z,5016.00
2018-07-17T06:16:37.142Z,5048.00
2018-07-17T06:17:37.311Z,5080.00
2018-07-17T06:18:37.478Z,5108.00
2018-07-17T06:19:37.651Z,5144.00
2018-07-17T06:20:37.817Z,5180.00
2018-07-17T06:21:37.988Z,5224.00
2018-07-17T06:22:38.161Z,5260.00
2018-07-17T06:23:38.330Z,5300.00
2018-07-17T06:24:38.502Z,5340.00
2018-07-17T06:25:39.533Z,5384.00
2018-07-17T06:26:38.859Z,5424.00
2018-07-17T06:27:39.031Z,5412.00
2018-07-17T06:28:39.199Z,5440.00
2018-07-17T06:29:39.382Z,5520.00
2018-07-17T06:30:39.558Z,5564.00
2018-07-17T06:31:39.733Z,5628.00
2018-07-17T06:32:39.893Z,5668.00
2018-07-17T06:33:40.064Z,5548.00
2018-07-17T06:34:40.239Z,5684.00
2018-07-17T06:35:40.408Z,5788.00
2018-07-17T06:36:40.579Z,5804.00
2018-07-17T06:37:40.750Z,5816.00
2018-07-17T06:38:40.916Z,5792.00
2018-07-17T06:39:41.087Z,5772.00
2018-07-17T06:40:41.255Z,5756.00
2018-07-17T06:41:41.433Z,5692.00
2018-07-17T06:42:41.609Z,5620.00
2018-07-17T06:43:41.781Z,5532.00
2018-07-17T06:44:41.999Z,5476.00
2018-07-17T06:45:42.128Z,5476.00
2018-07-17T06:46:42.295Z,5476.00
2018-07-17T06:47:42.467Z,5524.00
2018-07-17T06:48:42.647Z,5624.00
2018-07-17T06:49:42.827Z,5732.00
2018-07-17T06:50:43.025Z,5816.00
2018-07-17T06:51:43.169Z,5820.00
2018-07-17T06:52:43.340Z,5820.00
2018-07-17T06:53:43.516Z,5904.00
2018-07-17T06:54:43.697Z,5916.00
2018-07-17T06:55:43.851Z,5932.00
2018-07-17T06:56:44.026Z,5968.00
2018-07-17T06:57:44.200Z,6016.00
2018-07-17T06:58:44.367Z,6072.00
2018-07-17T06:59:44.541Z,6180.00
2018-07-17T07:00:44.711Z,6232.00
2018-07-17T07:01:44.881Z,6260.00
2018-07-17T07:02:45.050Z,6292.00
2018-07-17T07:03:46.100Z,6360.00
2018-07-17T07:04:45.394Z,6388.00
2018-07-17T07:05:45.567Z,6424.00
2018-07-17T07:06:45.739Z,6468.00
2018-07-17T07:07:45.913Z,6524.00
2018-07-17T07:08:46.087Z,6512.00
2018-07-17T07:09:46.258Z,6512.00
2018-07-17T07:10:46.431Z,6512.00
2018-07-17T07:11:46.596Z,6540.00
2018-07-17T07:12:46.770Z,6600.00
2018-07-17T07:13:46.945Z,6612.00
2018-07-17T07:14:47.109Z,6676.00
2018-07-17T07:15:47.441Z,6744.00
2018-07-17T07:16:47.487Z,6792.00
2018-07-17T07:17:47.664Z,6840.00
2018-07-17T07:18:47.836Z,6900.00
2018-07-17T07:19:48.010Z,6956.00
2018-07-17T07:20:48.181Z,6972.00
2018-07-17T07:21:48.368Z,7048.00
2018-07-17T07:22:48.540Z,7080.00
2018-07-17T07:23:48.717Z,7044.00
2018-07-17T07:24:49.604Z,7152.00
2018-07-17T07:25:49.030Z,7192.00
2018-07-17T07:26:49.207Z,7208.00
2018-07-17T07:27:49.377Z,7224.00
2018-07-17T07:28:49.548Z,7224.00
2018-07-17T07:29:49.714Z,7232.00
2018-07-17T07:30:49.902Z,7232.00
2018-07-17T07:31:50.077Z,7232.00
2018-07-17T07:32:50.251Z,7232.00
2018-07-17T07:33:50.422Z,7248.00
2018-07-17T07:34:50.590Z,7268.00
2018-07-17T07:35:50.769Z,7288.00
2018-07-17T07:36:50.937Z,7300.00
2018-07-17T07:37:51.109Z,7300.00
2018-07-17T07:38:51.276Z,7312.00
2018-07-17T07:39:51.449Z,7284.00
2018-07-17T07:40:51.625Z,7284.00
2018-07-17T07:41:51.803Z,7328.00
2018-07-17T07:42:51.981Z,7364.00
2018-07-17T07:43:52.142Z,7416.00
2018-07-17T07:44:52.311Z,7472.00
2018-07-17T07:45:52.478Z,7504.00
2018-07-17T07:46:52.655Z,7536.00
2018-07-17T07:47:52.832Z,7560.00
2018-07-17T07:48:52.999Z,7580.00
2018-07-17T07:49:53.186Z,7604.00
2018-07-17T07:50:53.358Z,7628.00
2018-07-17T07:51:53.531Z,7660.00
2018-07-17T07:52:53.703Z,7692.00
2018-07-17T07:53:53.868Z,7724.00
2018-07-17T07:54:54.044Z,7740.00
2018-07-17T07:55:54.213Z,7756.00
2018-07-17T07:56:54.388Z,7760.00
2018-07-17T07:57:54.565Z,7764.00
2018-07-17T07:58:54.737Z,7772.00
2018-07-17T07:59:54.904Z,7792.00
2018-07-17T08:00:55.074Z,7820.00
2018-07-17T08:01:55.249Z,7860.00
2018-07-17T08:02:55.420Z,7900.00
2018-07-17T08:03:56.170Z,7936.00
2018-07-17T08:04:55.805Z,7976.00
2018-07-17T08:05:56.186Z,8008.00
2018-07-17T08:06:56.105Z,8028.00
2018-07-17T08:07:56.283Z,8048.00
2018-07-17T08:08:56.447Z,8056.00
2018-07-17T08:09:56.627Z,8080.00
2018-07-17T08:10:56.798Z,8116.00
2018-07-17T08:11:57.000Z,8132.00
2018-07-17T08:12:57.141Z,8152.00
2018-07-17T08:13:58.125Z,8172.00
2018-07-17T08:14:57.547Z,8192.00
2018-07-17T08:15:57.720Z,8192.00
2018-07-17T08:16:57.889Z,8196.00
2018-07-17T08:17:58.060Z,8216.00
2018-07-17T08:18:58.232Z,8248.00
2018-07-17T08:19:59.123Z,8276.00
2018-07-17T08:20:58.541Z,8328.00
2018-07-17T08:21:58.715Z,8492.00
2018-07-17T08:22:58.885Z,8700.00
2018-07-17T08:23:59.070Z,8904.00
2018-07-17T08:24:59.254Z,9144.00
2018-07-17T08:25:59.433Z,9280.00
2018-07-17T08:26:59.601Z,9360.00
2018-07-17T08:27:59.779Z,9412.00
2018-07-17T08:28:59.956Z,9468.00
2018-07-17T08:30:00.131Z,9508.00
2018-07-17T08:31:00.320Z,9544.00
2018-07-17T08:32:00.487Z,9620.00
2018-07-17T08:33:00.661Z,9704.00
2018-07-17T08:34:00.838Z,9736.00
2018-07-17T08:35:01.018Z,9756.00
2018-07-17T08:36:01.196Z,9788.00
2018-07-17T08:37:01.362Z,9696.00
2018-07-17T08:38:01.537Z,9676.00
2018-07-17T08:39:01.720Z,9936.00
2018-07-17T08:40:01.895Z,9992.00
2018-07-17T08:41:02.069Z,10052.00
2018-07-17T08:42:02.247Z,10144.00
2018-07-17T08:43:02.420Z,10228.00
2018-07-17T08:44:02.596Z,10296.00
2018-07-17T08:45:02.775Z,10336.00
2018-07-17T08:46:02.945Z,10344.00
2018-07-17T08:47:03.116Z,9980.00
2018-07-17T08:48:03.294Z,10012.00
2018-07-17T08:49:03.523Z,10348.00
2018-07-17T08:50:03.641Z,10684.00
2018-07-17T08:51:03.811Z,10856.00
2018-07-17T08:52:03.988Z,10912.00
2018-07-17T08:53:04.164Z,10960.00
2018-07-17T08:54:04.384Z,11136.00
2018-07-17T08:55:04.534Z,11280.00
2018-07-17T08:56:04.690Z,11352.00
2018-07-17T08:57:04.861Z,11468.00
2018-07-17T08:58:05.050Z,11636.00
2018-07-17T08:59:05.220Z,11844.00
2018-07-17T09:00:05.407Z,12092.00
2018-07-17T09:01:05.571Z,12252.00
2018-07-17T09:02:05.742Z,12376.00
2018-07-17T09:03:05.915Z,12620.00
2018-07-17T09:04:06.087Z,12832.00
2018-07-17T09:05:06.260Z,13056.00
2018-07-17T09:06:06.442Z,13312.00
2018-07-17T09:07:07.129Z,13592.00
2018-07-17T09:08:07.634Z,13788.00
2018-07-17T09:09:07.628Z,14204.00
2018-07-17T09:10:07.064Z,14644.00
2018-07-17T09:11:07.242Z,14988.00
2018-07-17T09:12:07.428Z,15412.00
2018-07-17T09:13:07.660Z,15784.00
2018-07-17T09:14:07.790Z,16352.00
2018-07-17T09:15:07.964Z,16640.00
2018-07-17T09:16:08.150Z,16832.00
2018-07-17T09:17:08.326Z,17088.00
2018-07-17T09:18:08.507Z,17216.00
2018-07-17T09:19:08.678Z,17280.00
2018-07-17T09:20:08.855Z,17504.00
2018-07-17T09:21:09.033Z,20288.00
2018-07-17T09:22:09.204Z,23616.00
2018-07-17T09:23:09.377Z,24960.00
2018-07-17T09:24:09.559Z,24544.00
2018-07-17T09:25:09.735Z,24864.00
2018-07-17T09:26:09.924Z,25152.00
2018-07-17T09:27:10.114Z,25568.00
2018-07-17T09:28:10.285Z,25792.00
2018-07-17T09:29:10.457Z,25280.00
2018-07-17T09:30:10.638Z,25440.00
2018-07-17T09:31:10.817Z,25344.00
2018-07-17T09:32:10.998Z,25184.00
2018-07-17T09:33:11.177Z,25056.00
2018-07-17T09:34:11.365Z,24992.00
2018-07-17T09:35:11.546Z,24736.00
2018-07-17T09:36:11.727Z,24544.00
2018-07-17T09:37:11.906Z,24832.00
2018-07-17T09:38:12.088Z,25632.00
2018-07-17T09:39:12.276Z,26016.00
2018-07-17T09:40:12.458Z,26528.00
2018-07-17T09:41:12.641Z,27264.00
2018-07-17T09:42:12.820Z,30368.00
2018-07-17T09:43:13.023Z,44832.00
2018-07-17T09:44:13.231Z,56288.00
2018-07-17T09:45:13.398Z,55744.00
2018-07-17T09:46:13.582Z,57728.00
2018-07-17T09:47:13.765Z,59456.00
2018-07-17T09:48:13.952Z,66016.00
2018-07-17T09:49:14.139Z,65216.00
2018-07-17T09:50:14.326Z,64512.00
2018-07-17T09:51:14.521Z,68096.00
2018-07-17T09:52:14.701Z,66016.00
2018-07-17T09:53:14.892Z,66880.00
2018-07-17T09:54:15.135Z,71424.00
2018-07-17T09:55:15.263Z,73568.00
2018-07-17T09:56:15.458Z,72928.00
2018-07-17T09:57:15.650Z,68224.00
2018-07-17T09:58:15.846Z,62368.00
2018-07-17T09:59:16.036Z,61760.00
2018-07-17T10:00:16.223Z,54688.00
2018-07-17T10:01:16.414Z,38912.00
2018-07-17T10:02:16.614Z,31648.00
2018-07-17T10:03:16.806Z,28992.00
2018-07-17T10:04:16.995Z,28064.00
2018-07-17T10:05:17.183Z,27424.00
2018-07-17T10:06:17.387Z,27072.00
2018-07-17T10:07:17.570Z,27552.00
2018-07-17T10:08:17.758Z,26432.00
2018-07-17T10:09:17.943Z,27104.00
2018-07-17T10:10:18.128Z,27360.00
2018-07-17T10:11:18.320Z,27040.00
2018-07-17T10:12:18.512Z,26656.00
2018-07-17T10:13:18.702Z,26048.00
2018-07-17T10:14:18.890Z,26176.00
2018-07-17T10:15:19.076Z,26432.00
2018-07-17T10:16:19.267Z,26112.00
2018-07-17T10:17:19.453Z,26112.00
2018-07-17T10:18:19.648Z,26400.00
2018-07-17T10:19:19.958Z,26912.00
2018-07-17T10:20:20.074Z,27104.00
2018-07-17T10:21:20.217Z,27136.00
2018-07-17T10:22:20.411Z,27424.00
2018-07-17T10:23:20.604Z,27552.00
2018-07-17T10:24:20.873Z,27808.00
2018-07-17T10:25:20.947Z,28096.00
2018-07-17T10:26:21.170Z,28512.00
2018-07-17T10:27:21.322Z,28832.00
2018-07-17T10:28:21.517Z,29248.00
2018-07-17T10:29:21.711Z,30144.00
2018-07-17T10:30:21.907Z,31392.00
2018-07-17T10:31:22.090Z,37472.00
2018-07-17T10:32:22.293Z,47808.00
2018-07-17T10:33:22.485Z,56800.00
2018-07-17T10:34:22.673Z,65376.00
2018-07-17T10:35:22.869Z,68448.00
2018-07-17T10:36:23.055Z,69888.00
2018-07-17T10:37:23.250Z,72288.00
2018-07-17T10:38:23.439Z,76160.00
2018-07-17T10:39:23.635Z,75072.00
2018-07-17T10:40:23.833Z,76512.00
2018-07-17T10:41:24.022Z,80064.00
2018-07-17T10:42:24.218Z,83968.00
2018-07-17T10:43:24.415Z,85440.00
2018-07-17T10:44:24.607Z,83808.00
2018-07-17T10:45:24.800Z,86208.00
2018-07-17T10:46:24.992Z,89120.00
2018-07-17T10:47:25.190Z,90080.00
2018-07-17T10:48:25.381Z,88416.00
2018-07-17T10:49:25.568Z,85216.00
2018-07-17T10:50:25.770Z,84320.00
2018-07-17T10:51:25.992Z,78432.00
2018-07-17T10:52:26.160Z,84576.00
2018-07-17T10:53:26.351Z,90592.00
2018-07-17T10:54:26.548Z,93152.00
2018-07-17T10:55:26.748Z,92032.00
2018-07-17T10:56:26.943Z,89600.00
2018-07-17T10:57:27.138Z,90848.00
2018-07-17T10:58:27.330Z,92352.00
2018-07-17T10:59:27.527Z,92960.00
2018-07-17T11:00:27.731Z,90912.00
2018-07-17T11:01:27.929Z,92480.00
2018-07-17T11:02:28.127Z,93856.00
2018-07-17T11:03:28.322Z,93952.00
2018-07-17T11:04:28.519Z,90752.00
2018-07-17T11:05:28.712Z,91168.00
2018-07-17T11:06:28.912Z,95552.00
2018-07-17T11:07:29.096Z,96608.00
2018-07-17T11:08:29.326Z,96000.00
2018-07-17T11:09:29.490Z,95680.00
2018-07-17T11:10:29.693Z,94304.00
2018-07-17T11:11:29.896Z,95040.00
2018-07-17T11:12:30.090Z,96128.00
2018-07-17T11:13:30.296Z,96704.00
2018-07-17T11:14:30.496Z,94464.00
2018-07-17T11:15:30.693Z,95520.00
2018-07-17T11:16:30.888Z,99616.00
2018-07-17T11:17:31.111Z,97792.00
2018-07-17T11:18:31.311Z,97824.00
2018-07-17T11:19:31.506Z,97056.00
2018-07-17T11:20:31.701Z,95872.00
2018-07-17T11:21:31.893Z,93088.00
2018-07-17T11:22:32.092Z,96096.00
2018-07-17T11:23:32.294Z,95776.00
2018-07-17T11:24:32.498Z,96320.00
2018-07-17T11:25:32.691Z,92576.00
2018-07-17T11:26:32.893Z,92160.00
2018-07-17T11:27:33.083Z,92928.00
2018-07-17T11:28:34.053Z,92864.00
2018-07-17T11:29:33.486Z,97056.00
2018-07-17T11:30:33.687Z,98496.00
2018-07-17T11:31:33.882Z,100160.00
2018-07-17T11:32:34.225Z,101248.00
2018-07-17T11:33:34.299Z,100256.00
2018-07-17T11:34:34.498Z,97024.00
2018-07-17T11:35:34.696Z,98528.00
2018-07-17T11:36:34.901Z,93600.00
2018-07-17T11:37:35.094Z,93600.00
2018-07-17T11:38:35.344Z,91072.00
2018-07-17T11:39:35.483Z,89856.00
2018-07-17T11:40:35.693Z,90336.00
2018-07-17T11:43:22.088Z,96448.00
2018-07-17T11:44:22.284Z,95200.00
2018-07-17T11:45:22.485Z,94624.00
2018-07-17T11:46:22.679Z,96896.00
2018-07-17T11:47:22.877Z,95808.00
2018-07-17T11:48:23.070Z,94848.00
2018-07-17T11:49:23.267Z,92800.00
2018-07-17T11:50:23.469Z,98080.00
2018-07-17T11:51:23.666Z,98432.00
2018-07-17T11:52:23.868Z,100544.00
2018-07-17T11:53:24.080Z,99168.00
2018-07-17T11:54:24.269Z,16584.00
2018-07-17T11:55:24.465Z,29856.00
2018-07-17T11:56:24.667Z,38432.00
2018-07-17T11:57:24.867Z,100608.00
2018-07-17T11:58:25.073Z,18272.00
2018-07-17T11:59:25.467Z,14120.00
2018-07-17T12:00:25.478Z,12796.00
2018-07-17T12:01:25.680Z,11784.00
2018-07-17T12:02:25.887Z,10964.00
2018-07-17T12:03:26.090Z,10524.00
2018-07-17T12:04:26.283Z,11824.00
2018-07-17T12:05:26.518Z,99808.00
2018-07-17T12:06:26.674Z,98752.00
2018-07-17T12:07:26.863Z,102016.00
2018-07-17T12:08:27.057Z,18848.00
2018-07-17T12:09:27.247Z,103104.00
2018-07-17T12:10:27.437Z,49056.00
2018-07-17T12:11:27.643Z,81440.00
2018-07-17T12:12:27.820Z,93600.00
2018-07-17T12:13:28.021Z,105184.00
2018-07-17T12:14:28.205Z,106976.00
2018-07-17T12:15:28.400Z,103904.00
2018-07-17T12:16:28.594Z,88320.00
2018-07-17T12:17:28.788Z,86688.00
2018-07-17T12:18:28.980Z,85568.00
2018-07-17T12:19:29.178Z,88320.00
2018-07-17T12:20:29.794Z,93120.00
2018-07-17T12:21:30.014Z,17056.00
2018-07-17T12:22:29.722Z,13960.00